Time;durP1;ratioP1;P1;durP2;ratioP2;P2;SDS_P1;SDS_P2;PMS_P1;PMS_P2;Temp;Humidity;BMP_temperature;BMP_pressure;BME280_temperature;BME280_humidity;BME280_pressure;Samples;Min_cycle;Max_cycle;Signal;HPM_P1;HPM_P2
2022/06/24 00:01:42;;;;;;;11.35;4.63;;;;;;;22.65;100.00;99230.56;6308274;22;20512;-79
2022/06/24 00:04:08;;;;;;;10.23;4.95;;;;;;;22.46;100.00;99224.41;6308309;22;20011;-78
2022/06/24 00:06:46;;;;;;;9.38;4.28;;;;;;;22.42;100.00;99228.63;6310053;22;20328;-77
2022/06/24 00:09:16;;;;;;;11.90;4.63;;;;;;;22.34;100.00;99240.50;6312243;22;20320;-78
2022/06/24 00:11:43;;;;;;;10.95;4.80;;;;;;;22.31;100.00;99242.81;6312740;22;20018;-79
2022/06/24 00:14:13;;;;;;;9.90;4.60;;;;;;;22.29;100.00;99234.97;6311572;22;20363;-78
2022/06/24 00:17:08;;;;;;;;;;;;;;;22.33;100.00;99230.78;6308438;22;20008;-78
2022/06/24 00:19:55;;;;;;;7.90;4.25;;;;;;;22.37;100.00;99217.72;6281363;22;19910;-80
2022/06/24 00:22:21;;;;;;;12.57;4.07;;;;;;;22.42;100.00;99209.78;6305880;22;20022;-78
2022/06/24 00:24:47;;;;;;;13.90;4.13;;;;;;;22.48;100.00;99202.69;6307015;22;20012;-78
2022/06/24 00:27:31;;;;;;;12.88;4.30;;;;;;;22.56;100.00;99203.16;6306450;22;20010;-77
2022/06/24 00:29:57;;;;;;;15.70;4.45;;;;;;;22.63;100.00;99203.06;6305754;22;20007;-78
2022/06/24 00:32:30;;;;;;;8.82;3.97;;;;;;;22.69;100.00;99199.47;6306021;22;20006;-79
2022/06/24 00:35:12;;;;;;;16.88;4.88;;;;;;;22.72;100.00;99201.75;6306076;22;20323;-79
2022/06/24 00:37:39;;;;;;;15.50;4.10;;;;;;;22.77;100.00;99204.56;6305798;22;20018;-79
2022/06/24 00:40:11;;;;;;;8.00;3.95;;;;;;;22.82;100.00;99204.69;6305820;22;20375;-80
2022/06/24 00:42:38;;;;;;;14.02;3.85;;;;;;;22.86;100.00;99209.38;6306054;22;20022;-79
2022/06/24 00:45:24;;;;;;;15.20;4.53;;;;;;;22.86;100.00;99203.16;6305316;22;20301;-80
2022/06/24 00:47:51;;;;;;;11.73;4.40;;;;;;;22.71;100.00;99195.50;6306324;22;20015;-79
2022/06/24 00:50:23;;;;;;;10.30;4.55;;;;;;;22.70;100.00;99203.81;6305871;22;20009;-79
2022/06/24 00:52:54;;;;;;;13.02;4.45;;;;;;;22.60;100.00;99214.31;6306643;22;20007;-79
2022/06/24 00:55:32;;;;;;;12.13;4.07;;;;;;;22.54;100.00;99212.53;6306125;22;20090;-79
2022/06/24 00:58:00;;;;;;;9.00;4.13;;;;;;;22.49;100.00;99223.16;6303352;22;20018;-79
2022/06/24 01:00:28;;;;;;;11.20;3.70;;;;;;;22.32;100.00;99226.47;6275073;22;20066;-79
2022/06/24 01:03:01;;;;;;;10.88;4.60;;;;;;;22.07;100.00;99231.13;6302522;22;20015;-79
2022/06/24 01:05:28;;;;;;;9.65;3.60;;;;;;;22.02;100.00;99222.91;6304701;22;20029;-79
2022/06/24 01:07:54;;;;;;;7.55;4.00;;;;;;;21.96;100.00;99229.19;6305496;22;20328;-79
2022/06/24 01:10:20;;;;;;;13.63;4.88;;;;;;;21.93;100.00;99224.22;6304968;22;20011;-79
2022/06/24 01:12:46;;;;;;;11.02;4.43;;;;;;;21.96;100.00;99223.81;6277878;22;20057;-79
2022/06/24 01:15:12;;;;;;;10.40;5.20;;;;;;;21.77;100.00;99214.06;6304408;22;20007;-78
2022/06/24 01:17:37;;;;;;;12.65;4.07;;;;;;;21.76;100.00;99212.41;6304792;22;20033;-79
2022/06/24 01:20:05;;;;;;;6.57;4.32;;;;;;;21.80;100.00;99208.22;6277493;22;20035;-79
2022/06/24 01:22:32;;;;;;;9.10;4.13;;;;;;;21.77;100.00;99214.06;6305281;22;20313;-79
2022/06/24 01:24:57;;;;;;;10.93;5.10;;;;;;;21.62;100.00;99212.56;6304863;22;20011;-80
2022/06/24 01:27:23;;;;;;;12.32;4.93;;;;;;;21.38;100.00;99210.75;6305005;22;20447;-79
2022/06/24 01:29:49;;;;;;;11.10;4.45;;;;;;;21.07;100.00;99213.44;6304188;22;20023;-79
2022/06/24 01:32:14;;;;;;;11.20;4.72;;;;;;;20.55;100.00;99215.47;6277365;22;20011;-79
2022/06/24 01:34:40;;;;;;;16.70;5.00;;;;;;;20.50;100.00;99219.81;6304997;22;20019;-79
2022/06/24 01:37:06;;;;;;;9.25;4.70;;;;;;;20.28;100.00;99205.88;6304229;22;20065;-79
2022/06/24 01:39:31;;;;;;;7.95;4.85;;;;;;;20.16;100.00;99205.72;6304836;22;20033;-79
2022/06/24 01:41:57;;;;;;;18.92;5.85;;;;;;;20.23;100.00;99203.00;6304810;22;20031;-79
2022/06/24 01:44:24;;;;;;;13.65;5.20;;;;;;;20.13;100.00;99191.94;6303918;22;20470;-78
2022/06/24 01:46:50;;;;;;;12.55;5.15;;;;;;;20.25;100.00;99192.91;6305483;22;20401;-78
2022/06/24 01:49:16;;;;;;;10.57;5.45;;;;;;;20.02;100.00;99194.25;6279912;22;20387;-79
2022/06/24 01:51:46;;;;;;;12.75;6.00;;;;;;;19.78;100.00;99186.91;6307621;22;20056;-78
2022/06/24 01:54:12;;;;;;;11.55;5.82;;;;;;;19.61;100.00;99183.06;6304983;22;20296;-78
2022/06/24 01:56:38;;;;;;;15.80;6.40;;;;;;;19.54;100.00;99182.25;6279981;22;20007;-78
2022/06/24 01:59:04;;;;;;;20.50;7.47;;;;;;;19.61;100.00;99177.72;6281272;22;20007;-80
2022/06/24 02:01:29;;;;;;;12.90;6.18;;;;;;;19.69;100.00;99176.63;6313938;22;20058;-79
2022/06/24 02:03:56;;;;;;;13.80;6.30;;;;;;;19.77;100.00;99174.56;6311917;22;20053;-80
2022/06/24 02:06:22;;;;;;;13.48;5.65;;;;;;;19.90;100.00;99179.88;6313686;22;20305;-81
2022/06/24 02:08:48;;;;;;;16.30;6.15;;;;;;;19.92;100.00;99177.78;6314606;22;20007;-80
2022/06/24 02:13:59;;;;;;;16.10;6.13;;;;;;;20.05;100.00;99176.91;6316027;22;20821;-81
2022/06/24 02:16:26;;;;;;;11.50;5.95;;;;;;;20.12;100.00;99182.25;6306872;22;20079;-81
2022/06/24 02:18:56;;;;;;;12.95;5.93;;;;;;;20.21;100.00;99180.97;6311425;22;20007;-79
2022/06/24 02:21:23;;;;;;;9.25;5.57;;;;;;;20.33;100.00;99190.00;6318408;22;20400;-79
2022/06/24 02:23:49;;;;;;;11.80;5.38;;;;;;;20.37;100.00;99193.91;6318115;22;20008;-82
2022/06/24 02:26:15;;;;;;;11.13;5.80;;;;;;;20.41;100.00;99193.25;6313381;22;20027;-80
2022/06/24 02:28:40;;;;;;;16.88;5.85;;;;;;;20.36;100.00;99201.13;6283249;22;20226;-79
2022/06/24 02:31:06;;;;;;;15.15;6.45;;;;;;;20.41;100.00;99192.44;6312633;22;20007;-81
2022/06/24 02:33:32;;;;;;;14.30;5.85;;;;;;;20.41;100.00;99203.16;6287735;22;20030;-81
2022/06/24 02:35:58;;;;;;;13.77;5.45;;;;;;;20.37;100.00;99191.22;6285616;22;20008;-82
2022/06/24 02:38:24;;;;;;;11.93;5.57;;;;;;;20.39;100.00;99189.16;6308378;22;20090;-80
2022/06/24 02:40:51;;;;;;;12.48;5.10;;;;;;;20.44;100.00;99200.03;6312235;22;20007;-79
2022/06/24 02:43:21;;;;;;;10.23;5.53;;;;;;;20.51;100.00;99187.44;6323313;22;20037;-80
2022/06/24 02:45:50;;;;;;;14.65;5.55;;;;;;;20.55;100.00;99191.34;6325503;22;20022;-79
2022/06/24 02:48:18;;;;;;;16.13;5.75;;;;;;;20.57;100.00;99191.94;6325038;22;20011;-79
2022/06/24 02:50:48;;;;;;;15.32;6.10;;;;;;;20.58;100.00;99193.56;6324486;22;20117;-79
2022/06/24 02:53:15;;;;;;;13.57;5.60;;;;;;;20.66;100.00;99198.69;6313026;22;20000;-81
2022/06/24 02:55:42;;;;;;;11.02;5.55;;;;;;;20.71;100.00;99193.50;6305133;22;20509;-82
2022/06/24 02:58:07;;;;;;;10.60;5.38;;;;;;;20.71;100.00;99198.03;6304936;22;20039;-81
2022/06/24 03:00:34;;;;;;;13.30;5.43;;;;;;;20.76;100.00;99200.88;6277400;22;20060;-81
2022/06/24 03:03:01;;;;;;;12.32;6.57;;;;;;;20.77;100.00;99197.16;6305178;22;20010;-81
2022/06/24 03:05:28;;;;;;;15.07;5.72;;;;;;;20.81;100.00;99198.38;6303869;22;20458;-78
2022/06/24 03:07:54;;;;;;;16.10;6.85;;;;;;;20.81;100.00;99199.19;6304353;22;20011;-80
2022/06/24 03:10:20;;;;;;;10.57;5.00;;;;;;;20.82;100.00;99190.13;6305091;22;20052;-80
2022/06/24 03:12:46;;;;;;;11.48;5.72;;;;;;;20.87;100.00;99186.78;6305657;22;20011;-80
2022/06/24 03:15:12;;;;;;;13.63;5.50;;;;;;;20.89;100.00;99183.88;6304393;22;20018;-80
2022/06/24 03:17:38;;;;;;;17.58;5.85;;;;;;;20.90;100.00;99185.53;6278210;22;20017;-80
2022/06/24 03:20:08;;;;;;;10.80;5.05;;;;;;;20.89;100.00;99189.25;6280295;22;20003;-79
2022/06/24 03:22:35;;;;;;;18.70;6.45;;;;;;;20.82;100.00;99200.84;6308977;22;20007;-80
2022/06/24 03:25:01;;;;;;;16.02;6.00;;;;;;;20.78;100.00;99196.13;6308875;22;20069;-79
2022/06/24 03:27:26;;;;;;;11.55;5.80;;;;;;;20.72;100.00;99200.50;6279137;22;20015;-81
2022/06/24 03:29:52;;;;;;;14.90;5.85;;;;;;;20.68;100.00;99210.00;6306770;22;20010;-80
2022/06/24 03:32:18;;;;;;;11.35;4.78;;;;;;;20.71;100.00;99214.94;6279743;22;20015;-79
2022/06/24 03:34:43;;;;;;;10.15;5.07;;;;;;;20.70;100.00;99218.66;6306749;22;20011;-80
2022/06/24 03:37:09;;;;;;;12.40;5.47;;;;;;;20.73;100.00;99212.88;6307464;22;20008;-82
2022/06/24 03:39:35;;;;;;;11.60;4.80;;;;;;;20.73;100.00;99212.88;6307320;22;20061;-80
2022/06/24 03:42:01;;;;;;;9.90;4.97;;;;;;;20.76;100.00;99215.13;6310117;22;20015;-79
2022/06/24 03:44:27;;;;;;;9.55;5.45;;;;;;;20.83;100.00;99218.56;6316252;22;20015;-79
2022/06/24 03:46:52;;;;;;;14.90;5.55;;;;;;;20.78;100.00;99212.22;6317237;22;20014;-82
2022/06/24 03:49:19;;;;;;;12.32;5.82;;;;;;;20.75;100.00;99213.47;6322828;22;20022;-81
2022/06/24 03:51:45;;;;;;;10.93;5.75;;;;;;;20.79;100.00;99214.66;6323535;22;20015;-79
2022/06/24 03:54:13;;;;;;;13.65;6.03;;;;;;;20.84;100.00;99214.03;6320239;22;20427;-81
2022/06/24 03:56:38;;;;;;;15.30;6.47;;;;;;;20.90;100.00;99217.72;6308485;22;20452;-80
2022/06/24 03:59:04;;;;;;;14.90;6.60;;;;;;;20.93;100.00;99228.00;6307075;22;20007;-79
2022/06/24 04:01:31;;;;;;;16.40;7.75;;;;;;;20.90;100.00;99213.16;6281042;22;20016;-80
2022/06/24 04:03:56;;;;;;;15.80;9.70;;;;;;;20.93;100.00;99211.91;6320281;22;20022;-80
2022/06/24 04:06:22;;;;;;;24.65;10.93;;;;;;;20.97;100.00;99202.41;6320485;22;20018;-80
2022/06/24 04:08:48;;;;;;;16.60;10.38;;;;;;;21.04;100.00;99208.50;6280220;22;20015;-81
2022/06/24 04:11:16;;;;;;;25.33;11.43;;;;;;;20.99;100.00;99201.13;6279625;22;20018;-79
2022/06/24 04:13:42;;;;;;;15.60;9.07;;;;;;;21.01;100.00;99193.69;6306943;22;20328;-79
2022/06/24 04:16:09;;;;;;;21.48;11.85;;;;;;;21.05;100.00;99194.06;6307346;22;20011;-79
2022/06/24 04:18:34;;;;;;;21.35;11.75;;;;;;;21.07;100.00;99186.63;6279913;22;20066;-79
2022/06/24 04:21:00;;;;;;;24.42;13.23;;;;;;;21.06;100.00;99183.13;6306340;22;20027;-79
2022/06/24 04:23:26;;;;;;;23.00;14.82;;;;;;;21.04;100.00;99182.50;6306534;22;20011;-79
2022/06/24 04:25:52;;;;;;;26.15;15.73;;;;;;;21.00;100.00;99192.03;6279236;22;20064;-79
2022/06/24 04:28:18;;;;;;;23.67;15.63;;;;;;;20.88;100.00;99192.97;6278622;22;20383;-79
2022/06/24 04:30:44;;;;;;;27.60;16.90;;;;;;;20.87;100.00;99192.13;6305924;22;20007;-81
2022/06/24 04:33:09;;;;;;;30.10;17.73;;;;;;;20.88;100.00;99190.28;6308529;22;20007;-78
2022/06/24 04:35:35;;;;;;;27.63;17.63;;;;;;;20.88;100.00;99192.97;6284633;22;20015;-78
2022/06/24 04:38:01;;;;;;;23.58;15.38;;;;;;;20.92;100.00;99186.94;6267160;22;20011;-80
2022/06/24 04:40:27;;;;;;;30.23;15.50;;;;;;;20.98;100.00;99194.09;6315239;22;20003;-81
2022/06/24 04:42:52;;;;;;;30.05;14.73;;;;;;;21.00;100.00;99180.50;6309361;22;20090;-79
2022/06/24 04:45:18;;;;;;;25.27;13.80;;;;;;;20.96;100.00;99184.66;6305474;22;20049;-80
2022/06/24 04:47:44;;;;;;;24.27;12.98;;;;;;;20.99;100.00;99178.84;6305973;22;20011;-79
2022/06/24 04:50:10;;;;;;;18.25;11.65;;;;;;;21.00;100.00;99188.53;6277927;22;20011;-79
2022/06/24 04:52:38;;;;;;;21.00;12.32;;;;;;;21.00;100.00;99196.59;6305721;22;20022;-80
2022/06/24 04:55:05;;;;;;;22.05;12.23;;;;;;;21.06;100.00;99211.81;6305544;22;20340;-80
2022/06/24 04:57:30;;;;;;;29.48;14.30;;;;;;;20.80;100.00;99219.00;6305601;22;20427;-79
2022/06/24 04:59:56;;;;;;;29.48;15.00;;;;;;;20.82;100.00;99233.03;6305354;22;20009;-81
2022/06/24 05:02:22;;;;;;;27.20;15.38;;;;;;;20.81;100.00;99236.72;6313837;22;20012;-81
2022/06/24 05:04:47;;;;;;;24.33;14.85;;;;;;;20.87;100.00;99234.22;6319380;22;20045;-80
2022/06/24 05:07:13;;;;;;;23.88;14.57;;;;;;;20.55;100.00;99242.28;6295577;22;20079;-78
2022/06/24 05:09:38;;;;;;;26.15;15.80;;;;;;;20.56;100.00;99243.88;6322094;22;20042;-79
2022/06/24 05:12:04;;;;;;;31.63;16.35;;;;;;;20.73;100.00;99237.00;6320362;22;20072;-83
2022/06/24 05:14:30;;;;;;;23.80;16.40;;;;;;;20.87;100.00;99234.22;6324230;22;20007;-81
2022/06/24 05:16:57;;;;;;;28.45;17.20;;;;;;;20.95;100.00;99232.09;6317160;22;20012;-78
2022/06/24 05:19:23;;;;;;;36.45;17.50;;;;;;;20.87;100.00;99239.59;6308605;22;19999;-74
2022/06/24 05:21:48;;;;;;;26.83;16.70;;;;;;;20.85;100.00;99239.81;6304888;22;20014;-73
2022/06/24 05:24:14;;;;;;;32.28;16.35;;;;;;;20.97;100.00;99245.31;6303427;22;20007;-71
2022/06/24 05:26:44;;;;;;;25.20;17.50;;;;;;;21.09;100.00;99248.91;6304600;22;20011;-71
2022/06/24 05:29:10;;;;;;;27.13;17.83;;;;;;;21.14;100.00;99246.41;6303339;22;20012;-72
2022/06/24 05:31:36;;;;;;;25.38;17.15;;;;;;;21.18;100.00;99247.66;6304278;22;19996;-75
2022/06/24 05:34:02;;;;;;;21.88;18.00;;;;;;;21.22;100.00;99238.13;6303994;22;20022;-75
2022/06/24 05:36:27;;;;;;;27.42;17.80;;;;;;;21.26;100.00;99250.06;6304520;22;20340;-76
2022/06/24 05:38:53;;;;;;;34.03;19.30;;;;;;;21.28;100.00;99239.09;6291060;22;20018;-75
2022/06/24 05:41:19;;;;;;;30.83;17.52;;;;;;;21.30;100.00;99245.91;6290030;22;20392;-76
2022/06/24 05:43:46;;;;;;;27.00;16.98;;;;;;;21.42;100.00;99228.03;6276136;22;20007;-75
2022/06/24 05:46:12;;;;;;;30.80;18.00;;;;;;;21.50;100.00;99241.16;6302384;22;20053;-75
2022/06/24 05:48:38;;;;;;;29.45;17.35;;;;;;;21.65;100.00;99244.34;6304725;22;20030;-76
2022/06/24 05:51:11;;;;;;;33.78;17.27;;;;;;;21.80;100.00;99249.34;6304889;22;20041;-77
2022/06/24 05:56:22;;;;;;;25.88;16.52;;;;;;;21.89;100.00;99249.88;6304554;22;20353;-77
2022/06/24 05:58:48;;;;;;;24.95;16.45;;;;;;;21.92;100.00;99250.25;6304744;22;20374;-75
2022/06/24 06:01:14;;;;;;;23.67;16.65;;;;;;;21.95;100.00;99252.53;6303627;22;20018;-73
2022/06/24 06:03:40;;;;;;;33.42;18.48;;;;;;;21.88;100.00;99258.97;6304621;22;20003;-74
2022/06/24 06:06:07;;;;;;;30.10;17.35;;;;;;;21.87;100.00;99254.66;6304390;22;20327;-73
2022/06/24 06:08:33;;;;;;;23.92;17.10;;;;;;;21.88;100.00;99253.63;6304990;22;20363;-72
2022/06/24 06:10:59;;;;;;;32.38;18.60;;;;;;;21.86;100.00;99255.69;6304390;22;20007;-73
2022/06/24 06:13:25;;;;;;;30.73;18.70;;;;;;;21.93;100.00;99245.69;6304536;22;20011;-73
2022/06/24 06:15:51;;;;;;;28.05;17.02;;;;;;;22.11;100.00;99243.06;6303429;22;20068;-72
2022/06/24 06:18:16;;;;;;;29.55;19.08;;;;;;;22.23;100.00;99237.75;6304138;22;20336;-73
2022/06/24 06:20:42;;;;;;;27.50;18.98;;;;;;;22.16;100.00;99239.69;6304634;22;20026;-73
2022/06/24 06:23:07;;;;;;;29.70;17.67;;;;;;;22.12;100.00;99239.31;6276913;22;20041;-73
2022/06/24 06:25:33;;;;;;;27.10;17.83;;;;;;;22.16;100.00;99240.50;6304561;22;20007;-73
2022/06/24 06:28:01;;;;;;;28.75;17.25;;;;;;;22.28;100.00;99243.25;6304479;22;20039;-74
2022/06/24 06:30:30;;;;;;;27.63;17.15;;;;;;;22.42;100.00;99245.56;6303189;22;20087;-75
2022/06/24 06:32:56;;;;;;;27.20;17.35;;;;;;;22.53;100.00;99245.84;6276612;22;20007;-74
2022/06/24 06:35:22;;;;;;;24.90;17.13;;;;;;;22.60;100.00;99235.81;6277112;22;20435;-72
2022/06/24 06:37:48;;;;;;;25.83;16.38;;;;;;;22.73;100.00;99235.66;6304447;22;20035;-72
2022/06/24 06:40:14;;;;;;;33.28;17.08;;;;;;;22.78;100.00;99233.09;6276662;22;20052;-75
2022/06/24 06:42:39;;;;;;;24.98;15.27;;;;;;;22.81;100.00;99235.31;6304514;22;20018;-72
2022/06/24 06:45:05;;;;;;;25.65;14.68;;;;;;;22.83;100.00;99235.94;6303663;22;20018;-75
2022/06/24 06:47:31;;;;;;;26.85;15.50;;;;;;;22.87;100.00;99237.09;6276811;22;20018;-74
2022/06/24 06:49:57;;;;;;;29.95;16.55;;;;;;;22.98;100.00;99239.00;6303914;22;20011;-73
2022/06/24 06:52:22;;;;;;;;;;;;;;;23.04;100.00;99242.63;6304544;22;20017;-73
2022/06/24 06:54:48;;;;;;;15.48;12.63;;;;;;;23.00;100.00;99242.28;6304740;22;19915;-73
2022/06/24 06:57:13;;;;;;;;;;;;;;;22.91;100.00;99232.09;6304468;22;20129;-73
2022/06/24 06:59:39;;;;;;;;;;;;;;;22.75;100.00;99228.16;6304866;22;19949;-72
2022/06/24 07:02:04;;;;;;;;;;;;;;;22.59;100.00;99228.78;6304255;22;20281;-74
2022/06/24 07:04:29;;;;;;;;;;;;;;;22.79;100.00;99224.81;6304759;22;19921;-75
2022/06/24 07:06:55;;;;;;;;;;;;;;;22.96;100.00;99224.97;6304925;22;19952;-75
2022/06/24 07:09:20;;;;;;;;;;;;;;;23.07;100.00;99229.56;6304410;22;20357;-76
2022/06/24 07:11:46;;;;;;;;;;;;;;;23.13;100.00;99225.13;6304889;22;19911;-78
2022/06/24 07:14:11;;;;;;;;;;;;;;;23.10;100.00;99226.38;6304065;22;19913;-75
2022/06/24 07:16:36;;;;;;;;;;;;;;;23.17;100.00;99221.72;6305018;22;19917;-75
2022/06/24 07:19:02;;;;;;;;;;;;;;;23.32;100.00;99212.38;6303864;22;19911;-74
2022/06/24 07:21:28;;;;;;;;;;;;;;;23.44;100.00;99215.91;6304877;22;19914;-75
2022/06/24 07:23:53;;;;;;;;;;;;;;;23.54;100.00;99206.22;6304621;22;19918;-74
2022/06/24 07:26:18;;;;;;;;;;;;;;;23.73;100.00;99198.81;6277135;22;19986;-75
2022/06/24 07:28:44;;;;;;;;;;;;;;;23.90;100.00;99199.72;6304817;22;19911;-75
2022/06/24 07:31:16;;;;;;;;;;;;;;;23.95;100.00;99190.94;6303399;22;19917;-75
2022/06/24 07:33:42;;;;;;;;;;;;;;;24.01;100.00;99188.09;6304533;22;20242;-76
2022/06/24 07:36:07;;;;;;;;;;;;;;;24.15;100.00;99174.34;6276598;22;20287;-75
2022/06/24 07:38:33;;;;;;;;;;;;;;;24.23;100.00;99179.38;6304448;22;19990;-75
2022/06/24 07:40:58;;;;;;;;;;;;;;;24.24;100.00;99175.63;6304748;22;19994;-74
2022/06/24 07:43:23;;;;;;;;;;;;;;;24.32;100.00;99167.16;6303753;22;19936;-73
2022/06/24 07:45:51;;;;;;;;;;;;;;;24.40;100.00;99166.75;6304843;22;19923;-73
2022/06/24 07:48:16;;;;;;;;;;;;;;;24.39;100.00;99170.50;6304738;22;20247;-74
2022/06/24 07:50:41;;;;;;;;;;;;;;;24.42;100.00;99157.38;6304542;22;19911;-74
2022/06/24 07:53:07;;;;;;;;;;;;;;;24.36;100.00;99155.66;6303639;22;19934;-73
2022/06/24 07:58:16;;;;;;;;;;;;;;;24.68;100.00;99142.44;6304812;22;20221;-79
2022/06/24 08:00:42;;;;;;;;;;;;;;;24.62;100.00;99129.97;6303821;22;19948;-76
2022/06/24 08:03:07;;;;;;;;;;;;;;;24.77;99.89;99130.22;6304609;22;19971;-75
2022/06/24 08:05:33;;;;;;;;;;;;;;;24.79;97.98;99133.50;6304186;22;19977;-75
2022/06/24 08:07:58;;;;;;;;;;;;;;;24.85;98.87;99137.91;6276839;22;19911;-74
2022/06/24 08:10:24;;;;;;;;;;;;;;;24.86;98.97;99139.53;6303601;22;19914;-73
2022/06/24 08:12:49;;;;;;;;;;;;;;;24.77;99.90;99132.09;6304445;22;19911;-75
2022/06/24 08:15:16;;;;;;;;;;;;;;;24.81;100.00;99117.84;6304030;22;20288;-75
2022/06/24 08:17:42;;;;;;;;;;;;;;;24.84;100.00;99127.34;6305272;22;20224;-74
2022/06/24 08:20:08;;;;;;;;;;;;;;;24.87;100.00;99127.66;6304421;22;19911;-75
2022/06/24 08:22:33;;;;;;;;;;;;;;;24.82;100.00;99122.19;6304378;22;19910;-75
2022/06/24 08:24:58;;;;;;;;;;;;;;;24.81;100.00;99109.75;6303755;22;19911;-73
2022/06/24 08:27:24;;;;;;;;;;;;;;;24.77;99.66;99103.22;6303989;22;19907;-75
2022/06/24 08:29:49;;;;;;;;;;;;;;;24.51;100.00;99109.25;6302638;22;19915;-74
2022/06/24 08:32:15;;;;;;;;;;;;;;;24.54;100.00;99097.97;6303307;22;19918;-75
2022/06/24 08:34:40;;;;;;;;;;;;;;;24.46;100.00;99092.97;6304040;22;19911;-78
2022/06/24 08:37:05;;;;;;;;;;;;;;;24.26;100.00;99100.72;6302778;22;20247;-74
2022/06/24 08:39:31;;;;;;;;;;;;;;;24.32;100.00;99081.72;6303977;22;19911;-75
2022/06/24 08:41:58;;;;;;;;;;;;;;;24.45;100.00;99073.28;6304348;22;19911;-73
2022/06/24 08:44:23;;;;;;;;;;;;;;;24.65;100.00;99075.50;6303966;22;19915;-73
2022/06/24 08:46:49;;;;;;;;;;;;;;;24.77;99.67;99081.63;6304073;22;19915;-74
2022/06/24 08:49:15;;;;;;;;;;;;;;;24.98;99.21;99084.66;6303997;22;19906;-77
2022/06/24 08:51:41;;;;;;;;;;;;;;;25.09;98.46;99090.00;6304231;22;19942;-76
2022/06/24 08:54:07;;;;;;;;;;;;;;;25.19;98.12;99083.91;6303788;22;20397;-74
2022/06/24 08:56:32;;;;;;;;;;;;;;;25.33;97.99;99079.75;6304132;22;20036;-76
2022/06/24 08:58:58;;;;;;;;;;;;;;;25.50;97.50;99077.84;6276614;22;20423;-78
2022/06/24 09:01:24;;;;;;;;;;;;;;;25.64;95.45;99081.84;6303765;22;19926;-78
2022/06/24 09:03:49;;;;;;;;;;;;;;;25.73;95.30;99084.09;6304418;22;19910;-75
2022/06/24 09:06:16;;;;;;;;;;;;;;;25.55;94.85;99083.31;6276546;22;19957;-75
2022/06/24 09:08:46;;;;;;;;;;;;;;;25.34;96.12;99089.50;6303215;22;20259;-74
2022/06/24 09:11:11;;;;;;;;;;;;;;;25.27;97.68;99091.59;6303771;22;19925;-74
2022/06/24 09:13:44;;;;;;;;;;;;;;;25.26;95.59;99096.19;6304206;22;20010;-81
2022/06/24 09:16:10;;;;;;;;;;;;;;;25.33;95.63;99095.97;6276455;22;19911;-75
2022/06/24 09:18:35;;;;;;;;;;;;;;;25.46;95.60;99101.00;6304276;22;19935;-77
2022/06/24 09:21:01;;;;;;;;;;;;;;;25.50;94.69;99107.56;6303712;22;19980;-74
2022/06/24 09:23:26;;;;;;;;;;;;;;;25.57;94.55;99108.22;6303500;22;19907;-75
2022/06/24 09:25:53;;;;;;;;;;;;;;;25.65;93.61;99109.66;6303903;22;19997;-75
2022/06/24 09:28:29;;;;;;;;;;;;;;;25.73;93.15;99108.44;6303653;22;19949;-75
2022/06/24 09:31:02;;;;;;;;;;;;;;;25.82;92.31;99099.59;6303790;22;19911;-75
2022/06/24 09:33:27;;;;;;;;;;;;;;;25.93;91.70;99112.16;6304219;22;19926;-76
2022/06/24 09:36:00;;;;;;;;;;;;;;;25.96;90.33;99102.75;6303964;22;19921;-73
2022/06/24 09:38:26;;;;;;;;;;;;;;;25.94;90.82;99100.28;6303672;22;19918;-74
2022/06/24 09:40:58;;;;;;;;;;;;;;;25.97;90.97;99101.69;6303627;22;19915;-74
2022/06/24 09:43:27;;;;;;;;;;;;;;;26.07;91.25;99096.38;6275942;22;19968;-75
2022/06/24 09:45:53;;;;;;;;;;;;;;;26.12;90.38;99092.91;6303684;22;20260;-74
2022/06/24 09:48:26;;;;;;;;;;;;;;;26.20;89.21;99087.88;6303581;22;19910;-74
2022/06/24 09:50:52;;;;;;;;;;;;;;;26.12;88.67;99082.91;6303822;22;19942;-73
2022/06/24 09:53:18;;;;;;;;;;;;;;;26.20;89.26;99077.06;6303377;22;19914;-75
2022/06/24 09:55:44;;;;;;;;;;;;;;;26.22;87.92;99083.00;6303308;22;19915;-76
2022/06/24 09:58:10;;;;;;;;;;;;;;;26.25;88.20;99071.72;6303174;22;19911;-73
2022/06/24 10:00:41;;;;;;;;;;;;;;;26.23;84.75;99073.84;6303459;22;19910;-75
2022/06/24 10:03:08;;;;;;;;;;;;;;;26.22;85.25;99072.19;6276030;22;19942;-74
2022/06/24 10:05:34;;;;;;;;;;;;;;;26.27;85.94;99068.78;6303710;22;19907;-75
2022/06/24 10:08:01;;;;;;;;;;;;;;;26.34;85.70;99061.25;6276146;22;19911;-75
2022/06/24 10:10:28;;;;;;;;;;;;;;;26.42;85.64;99052.66;6276029;22;19914;-75
2022/06/24 10:12:58;;;;;;;;;;;;;;;26.51;85.81;99047.59;6303118;22;20356;-75
2022/06/24 10:15:23;;;;;;;;;;;;;;;26.59;83.61;99039.00;6302854;22;20287;-75
2022/06/24 10:17:49;;;;;;;;;;;;;;;26.58;81.95;99045.47;6303654;22;19911;-75
2022/06/24 10:20:16;;;;;;;;;;;;;;;26.59;82.88;99044.41;6303275;22;19910;-75
2022/06/24 10:22:42;;;;;;;;;;;;;;;26.60;83.11;99029.81;6303480;22;20259;-75
2022/06/24 10:25:08;;;;;;;;;;;;;;;26.65;82.96;99016.31;6302934;22;19910;-74
2022/06/24 10:27:52;;;;;;;;;;;;;;;26.71;81.30;99009.84;6302933;22;19981;-74
2022/06/24 10:30:38;;;;;;;;;;;;;;;26.76;80.94;98996.34;6302727;22;19945;-76
2022/06/24 10:33:11;;;;;;;;;;;;;;;26.85;80.67;98994.81;6283105;22;19910;-75
2022/06/24 10:35:55;;;;;;;;;;;;;;;26.94;78.60;98987.00;6303966;22;20311;-76
2022/06/24 10:38:21;;;;;;;;;;;;;;;27.02;78.55;98976.50;6304539;22;19976;-76
2022/06/24 10:40:47;;;;;;;;;;;;;;;27.07;79.18;98971.13;6304500;22;19953;-76
2022/06/24 10:43:13;;;;;;;;;;;;;;;27.11;77.55;98965.97;6303148;22;19914;-75
2022/06/24 10:45:39;;;;;;;9.05;3.55;;;;;;;27.13;78.12;98959.22;6303794;22;19921;-75
2022/06/24 10:48:05;;;;;;;11.73;3.40;;;;;;;27.21;76.80;98961.44;6303391;22;20014;-74
2022/06/24 10:50:31;;;;;;;8.98;4.43;;;;;;;27.26;75.99;98942.50;6303988;22;20428;-75
2022/06/24 10:53:02;;;;;;;9.07;2.67;;;;;;;27.28;75.84;98940.31;6303913;22;20009;-75
2022/06/24 10:55:37;;;;;;;12.70;3.47;;;;;;;27.38;73.32;98942.25;6303939;22;20444;-75
2022/06/24 10:58:11;;;;;;;7.47;2.70;;;;;;;27.47;72.02;98937.94;6244708;22;20263;-74
2022/06/24 11:00:37;;;;;;;6.25;2.55;;;;;;;27.54;71.11;98918.75;6271796;22;20429;-74
2022/06/24 11:03:02;;;;;;;6.70;2.75;;;;;;;27.61;71.06;98914.69;6272535;22;20053;-75
2022/06/24 11:05:36;;;;;;;12.20;3.20;;;;;;;27.76;71.15;98919.31;6246512;22;20011;-74
2022/06/24 11:08:08;;;;;;;9.30;3.20;;;;;;;27.90;71.40;98931.25;6245010;22;20007;-74
2022/06/24 11:10:34;;;;;;;8.50;3.13;;;;;;;28.00;72.18;98915.00;6273089;22;20007;-74
2022/06/24 11:13:01;;;;;;;9.27;2.70;;;;;;;28.06;72.82;98918.50;6272364;22;20011;-74
2022/06/24 11:15:56;;;;;;;7.47;2.63;;;;;;;28.08;72.94;98917.16;6271887;22;20114;-74
2022/06/24 11:18:24;;;;;;;6.28;2.42;;;;;;;28.06;72.75;98919.31;6271854;22;20015;-76
2022/06/24 11:20:59;;;;;;;11.20;3.00;;;;;;;28.09;71.86;98924.22;6245364;22;20329;-74
2022/06/24 11:23:25;;;;;;;;;;;;;;;28.09;71.97;98929.66;6272975;22;20240;-74
2022/06/24 11:25:52;;;;;;;;;;;;;;;28.13;72.71;98926.38;6273536;22;19918;-74
2022/06/24 11:28:18;;;;;;;;;;;;;;;28.11;72.68;98922.03;6272675;22;19946;-73
2022/06/24 11:30:43;;;;;;;;;;;;;;;28.11;73.39;98919.31;6245334;22;19926;-74
2022/06/24 11:33:08;;;;;;;;;;;;;;;28.09;74.07;98916.09;6272548;22;19939;-74
2022/06/24 11:35:34;;;;;;;;;;;;;;;28.07;74.70;98909.28;6272177;22;19911;-75
2022/06/24 11:38:04;;;;;;;;;;;;;;;28.06;74.99;98911.19;6271660;22;19982;-74
2022/06/24 11:40:33;;;;;;;;;;;;;;;28.07;75.82;98912.00;6272515;22;20274;-73
2022/06/24 11:43:18;;;;;;;;;;;;;;;28.08;76.33;98909.03;6271809;22;19961;-74
2022/06/24 11:45:48;;;;;;;;;;;;;;;28.08;74.99;98911.75;6243429;22;19969;-73
2022/06/24 11:48:21;;;;;;;;;;;;;;;28.08;74.55;98910.94;6243498;22;19938;-73
2022/06/24 11:50:47;;;;;;;;;;;;;;;28.10;74.58;98903.31;6218839;22;19911;-74
2022/06/24 11:53:12;;;;;;;;;;;;;;;28.04;75.41;98897.06;6270965;22;19907;-74
2022/06/24 11:55:39;;;;;;;;;;;;;;;28.03;74.53;98892.75;6271366;22;19918;-74